Time;durP1;ratioP1;P1;durP2;ratioP2;P2;SDS_P1;SDS_P2;PMS_P1;PMS_P2;Temp;Humidity;BMP_temperature;BMP_pressure;BME280_temperature;BME280_humidity;BME280_pressure;Samples;Min_cycle;Max_cycle;Signal;HPM_P1;HPM_P2
2022/01/23 00:02:12;;;;;;;;;;;19.50;39.40;;;;;;5093087;28;19916;-67
2022/01/23 00:04:38;;;;;;;;;;;19.50;39.40;;;;;;5093632;28;19923;-67
2022/01/23 00:07:06;;;;;;;;;;;19.50;39.40;;;;;;5093278;28;19998;-67
2022/01/23 00:09:32;;;;;;;;;;;19.50;39.40;;;;;;5093335;28;19920;-67
2022/01/23 00:11:58;;;;;;;;;;;19.50;39.40;;;;;;5093267;28;20267;-67
2022/01/23 00:17:20;;;;;;;;;;;19.50;39.40;;;;;;5093288;28;19915;-67
2022/01/23 00:20:06;;;;;;;;;;;19.50;39.50;;;;;;5093425;28;19953;-67
2022/01/23 00:22:40;;;;;;;;;;;19.50;39.50;;;;;;5093217;28;19919;-67
2022/01/23 00:30:35;;;;;;;;;;;19.50;39.40;;;;;;5097274;28;19915;-67
2022/01/23 00:33:02;;;;;;;;;;;19.50;39.50;;;;;;5078603;28;20314;-67
2022/01/23 00:35:28;;;;;;;;;;;19.50;39.40;;;;;;5078872;28;19947;-67
2022/01/23 00:37:53;;;;;;;;;;;19.50;39.40;;;;;;5078568;28;19953;-67
2022/01/23 00:40:19;;;;;;;;;;;19.50;39.40;;;;;;5096715;28;20421;-67
2022/01/23 00:42:44;;;;;;;;;;;19.50;39.50;;;;;;5096598;28;19982;-67
2022/01/23 00:45:27;;;;;;;;;;;19.50;39.40;;;;;;5096639;28;19908;-67
2022/01/23 00:47:56;;;;;;;;;;;19.50;39.40;;;;;;5096664;28;19915;-67
2022/01/23 00:50:21;;;;;;;;;;;19.50;39.40;;;;;;5096515;28;19942;-67
2022/01/23 00:52:47;;;;;;;;;;;19.50;39.50;;;;;;5096636;28;20393;-66
2022/01/23 00:55:12;;;;;;;;;;;19.50;39.50;;;;;;5096361;28;20363;-67
2022/01/23 00:57:37;;;;;;;;;;;19.50;39.50;;;;;;5096047;28;19943;-66
2022/01/23 01:00:04;;;;;;;;;;;19.50;39.50;;;;;;5096238;28;19913;-67
2022/01/23 01:02:29;;;;;;;;;;;19.50;39.50;;;;;;5096122;28;19924;-66
2022/01/23 01:04:55;;;;;;;;;;;19.50;39.50;;;;;;5096148;28;19908;-67
2022/01/23 01:07:20;;;;;;;;;;;19.50;39.50;;;;;;5096070;28;20260;-67
2022/01/23 01:09:49;;;;;;;;;;;19.50;39.50;;;;;;5095911;28;20380;-67
2022/01/23 01:12:26;;;;;;;;;;;19.50;39.50;;;;;;5095906;28;19908;-67
2022/01/23 01:35:57;;;;;;;;;;;19.50;39.40;;;;;;5094860;28;19961;-66
2022/01/23 01:38:24;;;;;;;;;;;19.50;39.50;;;;;;5095573;28;19951;-67
2022/01/23 01:40:49;;;;;;;;;;;19.50;39.40;;;;;;5095375;28;19975;-67
2022/01/23 01:43:15;;;;;;;;;;;19.50;39.50;;;;;;5077070;28;20023;-67
2022/01/23 01:45:42;;;;;;;;;;;19.50;39.40;;;;;;5077073;28;19912;-67
2022/01/23 01:48:08;;;;;;;;;;;19.50;39.40;;;;;;5095546;28;19917;-67
2022/01/23 01:50:34;;;;;;;;;;;19.50;39.40;;;;;;5077096;28;19912;-67
2022/01/23 01:53:00;;;;;;;;;;;19.50;39.40;;;;;;5095319;28;19908;-67
2022/01/23 01:55:27;;;;;;;;;;;19.50;39.40;;;;;;5095286;28;20405;-67
2022/01/23 01:57:56;;;;;;;;;;;19.50;39.40;;;;;;5095076;28;19962;-67
2022/01/23 02:00:39;;;;;;;;;;;19.50;39.40;;;;;;5077022;28;20378;-67
2022/01/23 02:10:50;;;;;;;;;;;19.50;39.50;;;;;;5095286;28;20343;-67
2022/01/23 02:13:19;;;;;;;;;;;19.50;39.50;;;;;;5094898;28;20006;-66
2022/01/23 02:16:18;;;;;;;;;;;19.50;39.40;;;;;;5094822;28;19919;-67
2022/01/23 02:24:35;;;;;;;;;;;19.50;39.40;;;;;;5094980;28;19915;-67
2022/01/23 02:51:58;;;;;;;;;;;19.40;39.50;;;;;;5095434;28;19989;-67
2022/01/23 02:54:43;;;;;;;;;;;19.50;39.50;;;;;;5094716;28;20003;-68
2022/01/23 02:57:10;;;;;;;;;;;19.40;39.50;;;;;;5075953;28;19908;-67
2022/01/23 02:59:38;;;;;;;;;;;19.40;39.50;;;;;;5094372;28;19927;-68
2022/01/23 03:04:38;;;;;;;;;;;19.40;39.50;;;;;;5094146;28;20385;-67
2022/01/23 03:10:12;;;;;;;;;;;19.40;39.50;;;;;;4972721;28;19916;-68
2022/01/23 03:15:15;;;;;;;;;;;19.40;39.50;;;;;;5094017;28;19912;-67
2022/01/23 03:28:37;;;;;;;;;;;19.40;39.50;;;;;;5093922;28;19912;-67
2022/01/23 03:33:46;;;;;;;;;;;19.40;39.50;;;;;;5093780;28;19911;-67
2022/01/23 03:36:12;;;;;;;;;;;19.40;39.50;;;;;;5075443;28;20329;-67
2022/01/23 03:38:37;;;;;;;;;;;19.40;39.50;;;;;;5093588;28;19934;-67
2022/01/23 03:41:03;;;;;;;;;;;19.50;39.50;;;;;;5093455;28;20363;-67
2022/01/23 03:43:32;;;;;;;;;;;19.40;39.50;;;;;;5093476;28;20316;-67
2022/01/23 03:46:21;;;;;;;;;;;19.40;39.40;;;;;;5093464;28;19912;-67
2022/01/23 03:51:14;;;;;;;;;;;19.40;39.40;;;;;;5093702;28;20002;-67
2022/01/23 03:53:39;;;;;;;;;;;19.40;39.50;;;;;;5093393;28;19908;-67
2022/01/23 03:56:05;;;;;;;;;;;19.40;39.50;;;;;;5093331;28;20295;-67
2022/01/23 03:58:31;;;;;;;;;;;19.40;39.50;;;;;;5095911;28;20010;-67
2022/01/23 04:00:56;;;;;;;;;;;19.40;39.50;;;;;;5097478;28;19946;-67
2022/01/23 04:03:22;;;;;;;;;;;19.50;39.50;;;;;;5097345;28;19917;-67
2022/01/23 04:05:47;;;;;;;;;;;19.40;39.50;;;;;;5097316;28;19908;-66
2022/01/23 04:08:15;;;;;;;;;;;19.40;39.40;;;;;;5097358;28;20284;-67
2022/01/23 04:10:41;;;;;;;;;;;19.40;39.50;;;;;;5097303;28;20382;-67
2022/01/23 04:34:21;;;;;;;;;;;19.40;39.50;;;;;;5096930;28;19970;-67
2022/01/23 04:45:23;;;;;;;;;;;19.50;39.50;;;;;;5096723;28;20371;-67
2022/01/23 05:01:28;;;;;;;;;;;19.40;39.50;;;;;;5096588;28;19991;-67
2022/01/23 05:06:42;;;;;;;;;;;19.40;39.50;;;;;;5096230;28;19912;-67
2022/01/23 05:09:08;;;;;;;;;;;19.40;39.50;;;;;;5096029;28;19908;-66
2022/01/23 05:11:50;;;;;;;;;;;19.40;39.50;;;;;;5096444;28;20003;-67
2022/01/23 05:14:21;;;;;;;;;;;19.50;39.50;;;;;;5096468;28;20314;-67
2022/01/23 05:16:46;;;;;;;;;;;19.40;39.50;;;;;;5096182;28;20279;-67
2022/01/23 05:19:12;;;;;;;;;;;19.40;39.50;;;;;;5095829;28;19912;-67
2022/01/23 05:24:06;;;;;;;;;;;19.50;39.40;;;;;;5096127;28;19908;-67
2022/01/23 05:26:36;;;;;;;;;;;19.50;39.40;;;;;;5077912;28;19912;-67
2022/01/23 05:29:01;;;;;;;;;;;19.50;39.30;;;;;;5096034;28;19908;-67
2022/01/23 05:31:26;;;;;;;;;;;19.50;39.30;;;;;;5095744;28;19962;-67
2022/01/23 05:33:52;;;;;;;;;;;19.50;39.20;;;;;;5095836;28;19912;-67
2022/01/23 05:36:19;;;;;;;;;;;19.60;39.20;;;;;;5095803;28;19915;-66
2022/01/23 05:38:45;;;;;;;;;;;19.60;39.20;;;;;;5095680;28;19915;-67
2022/01/23 05:41:10;;;;;;;;;;;19.60;39.20;;;;;;5095519;28;19908;-67
2022/01/23 05:43:36;;;;;;;;;;;19.60;39.20;;;;;;5095576;28;20045;-67
2022/01/23 05:46:01;;;;;;;;;;;19.60;39.20;;;;;;5095384;28;19916;-67
2022/01/23 05:48:27;;;;;;;;;;;19.70;39.20;;;;;;5095521;28;19912;-67
2022/01/23 05:50:52;;;;;;;;;;;19.70;39.20;;;;;;5095717;28;20335;-67
2022/01/23 05:53:18;;;;;;;;;;;19.70;39.20;;;;;;5095528;28;20280;-67
2022/01/23 05:55:43;;;;;;;;;;;19.60;39.20;;;;;;5095337;28;19909;-67
2022/01/23 05:58:08;;;;;;;;;;;19.70;39.20;;;;;;5095095;28;19927;-67
2022/01/23 06:00:34;;;;;;;;;;;19.70;39.20;;;;;;5095137;28;19915;-67
2022/01/23 06:02:59;;;;;;;;;;;19.70;39.20;;;;;;5095106;28;19916;-67
2022/01/23 06:05:25;;;;;;;;;;;19.70;39.20;;;;;;5095138;28;19908;-67
2022/01/23 06:07:51;;;;;;;;;;;19.70;39.20;;;;;;5095043;28;20279;-67
2022/01/23 06:10:26;;;;;;;;;;;19.70;39.20;;;;;;5094971;28;19911;-67
2022/01/23 06:12:51;;;;;;;;;;;19.70;39.10;;;;;;5094877;28;19946;-66
2022/01/23 06:15:17;;;;;;;;;;;19.70;39.20;;;;;;5094901;28;19912;-68
2022/01/23 06:17:42;;;;;;;;;;;19.70;39.20;;;;;;5076706;28;19919;-67
2022/01/23 06:20:10;;;;;;;;;;;19.70;39.20;;;;;;5076051;28;20007;-67
2022/01/23 06:22:36;;;;;;;;;;;19.70;39.20;;;;;;5094690;28;20020;-67
2022/01/23 06:25:05;;;;;;;;;;;19.80;39.20;;;;;;5094719;28;20581;-67
2022/01/23 06:27:30;;;;;;;;;;;19.70;39.20;;;;;;5094657;28;19908;-67
2022/01/23 06:29:56;;;;;;;;;;;19.80;39.20;;;;;;5094596;28;19908;-67
2022/01/23 06:32:21;;;;;;;;;;;19.80;39.20;;;;;;5094580;28;19946;-67
2022/01/23 06:34:47;;;;;;;;;;;19.80;39.20;;;;;;5094586;28;19908;-67
2022/01/23 06:37:12;;;;;;;;;;;19.80;39.20;;;;;;5094491;28;19986;-67
2022/01/23 06:39:38;;;;;;;;;;;19.80;39.20;;;;;;5094451;28;19908;-67
2022/01/23 06:42:04;;;;;;;;;;;19.80;39.10;;;;;;5094326;28;19962;-67
2022/01/23 06:44:29;;;;;;;;;;;19.80;39.10;;;;;;5094286;28;19999;-67
2022/01/23 06:46:55;;;;;;;;;;;19.80;39.20;;;;;;5094325;28;19912;-67
2022/01/23 06:49:21;;;;;;;;;;;19.80;39.20;;;;;;5094232;28;19943;-67
2022/01/23 06:51:47;;;;;;;;;;;19.80;39.20;;;;;;5094231;28;19909;-67
2022/01/23 06:54:12;;;;;;;;;;;19.80;39.10;;;;;;5094472;28;19965;-67
2022/01/23 06:56:38;;;;;;;;;;;19.80;39.10;;;;;;5094118;28;19912;-66
2022/01/23 06:59:04;;;;;;;;;;;19.80;39.20;;;;;;5093921;28;19920;-67
2022/01/23 07:01:29;;;;;;;;;;;19.80;39.10;;;;;;5093987;28;19916;-67
2022/01/23 07:03:54;;;;;;;;;;;19.80;39.20;;;;;;5094044;28;20375;-67
2022/01/23 07:06:20;;;;;;;;;;;19.80;39.10;;;;;;5075900;28;20386;-66
2022/01/23 07:08:45;;;;;;;;;;;19.80;39.10;;;;;;5075738;28;19931;-67
2022/01/23 07:11:11;;;;;;;;;;;19.90;39.20;;;;;;5093869;28;20018;-66
2022/01/23 07:13:36;;;;;;;;;;;19.80;39.10;;;;;;5093890;28;20372;-67
2022/01/23 07:16:06;;;;;;;;;;;19.80;39.10;;;;;;5093843;28;20420;-67
2022/01/23 07:18:31;;;;;;;;;;;19.80;39.10;;;;;;5093861;28;19943;-67
2022/01/23 07:20:57;;;;;;;;;;;19.90;39.20;;;;;;5093787;28;19908;-67
2022/01/23 07:23:23;;;;;;;;;;;19.80;39.20;;;;;;5093633;28;19920;-67
2022/01/23 07:25:49;;;;;;;;;;;19.90;39.10;;;;;;5093701;28;19942;-66
2022/01/23 07:28:17;;;;;;;;;;;19.90;39.10;;;;;;5093699;28;19908;-67
2022/01/23 07:30:50;;;;;;;;;;;19.90;39.10;;;;;;5093633;28;19912;-66
2022/01/23 07:33:16;;;;;;;;;;;19.90;39.10;;;;;;5092985;28;19908;-67
2022/01/23 07:35:41;;;;;;;;;;;19.90;39.10;;;;;;5093599;28;19912;-67
2022/01/23 07:38:09;;;;;;;;;;;19.90;39.10;;;;;;5093585;28;20383;-67
2022/01/23 07:40:35;;;;;;;;;;;19.90;39.10;;;;;;5093473;28;19908;-67
2022/01/23 07:43:00;;;;;;;;;;;19.90;39.10;;;;;;5093406;28;20317;-67
2022/01/23 07:45:26;;;;;;;;;;;19.90;39.10;;;;;;5093462;28;20291;-67
2022/01/23 07:47:51;;;;;;;;;;;19.90;39.10;;;;;;5075296;28;20329;-67
2022/01/23 07:50:17;;;;;;;;;;;19.90;39.20;;;;;;5075311;28;20409;-67
2022/01/23 07:52:42;;;;;;;;;;;19.90;39.10;;;;;;5075327;28;20383;-67
2022/01/23 07:55:10;;;;;;;;;;;19.90;39.10;;;;;;5093385;28;19965;-67
2022/01/23 07:57:35;;;;;;;;;;;19.90;39.10;;;;;;5093044;28;20294;-67
2022/01/23 08:00:01;;;;;;;;;;;19.90;39.10;;;;;;5093560;28;19912;-67
2022/01/23 08:02:26;;;;;;;;;;;19.90;39.10;;;;;;5093226;28;19916;-67
2022/01/23 08:04:52;;;;;;;;;;;19.90;39.10;;;;;;5093344;28;20375;-67
2022/01/23 08:07:31;;;;;;;;;;;19.90;39.10;;;;;;5093242;28;20299;-67
2022/01/23 08:09:57;;;;;;;;;;;19.90;39.10;;;;;;5075138;28;20314;-67
2022/01/23 08:12:22;;;;;;;;;;;19.90;39.10;;;;;;5093428;28;19919;-66
2022/01/23 08:14:48;;;;;;;;;;;19.90;39.10;;;;;;5075090;28;19908;-67
2022/01/23 08:17:13;;;;;;;;;;;19.90;39.10;;;;;;5093144;28;20275;-67
2022/01/23 08:19:39;;;;;;;;;;;19.90;39.10;;;;;;5093194;28;19908;-67
2022/01/23 08:22:04;;;;;;;;;;;20.00;39.10;;;;;;5093101;28;19916;-67
2022/01/23 08:24:30;;;;;;;;;;;20.00;39.10;;;;;;5093089;28;19909;-67
2022/01/23 08:26:55;;;;;;;;;;;19.90;39.10;;;;;;5093176;28;20292;-67
2022/01/23 08:29:21;;;;;;;;;;;20.00;39.10;;;;;;5093341;28;19955;-67
2022/01/23 08:31:47;;;;;;;;;;;19.90;39.10;;;;;;5093402;28;20026;-67
2022/01/23 08:34:13;;;;;;;;;;;20.00;39.10;;;;;;5093179;28;20355;-67
2022/01/23 08:36:39;;;;;;;;;;;20.00;39.10;;;;;;5093210;28;19915;-66
2022/01/23 08:39:05;;;;;;;;;;;20.00;39.10;;;;;;5093335;28;19909;-67
2022/01/23 08:44:14;;;;;;;;;;;20.00;39.10;;;;;;5095284;28;19919;-67
2022/01/23 08:46:40;;;;;;;;;;;20.00;39.10;;;;;;5096834;28;19908;-67
2022/01/23 08:49:05;;;;;;;;;;;20.00;39.10;;;;;;5097035;28;20351;-67
2022/01/23 08:51:31;;;;;;;;;;;20.00;39.10;;;;;;5096532;28;20409;-67
2022/01/23 08:53:58;;;;;;;;;;;20.00;39.10;;;;;;5096759;28;20360;-67
2022/01/23 08:56:24;;;;;;;;;;;20.00;39.10;;;;;;5096615;28;19914;-67
2022/01/23 08:58:49;;;;;;;;;;;20.00;39.10;;;;;;5096379;28;20018;-67
2022/01/23 09:01:15;;;;;;;;;;;20.00;39.10;;;;;;5096382;28;19908;-67
2022/01/23 09:03:40;;;;;;;;;;;20.00;39.10;;;;;;5096379;28;19915;-66
2022/01/23 09:06:07;;;;;;;;;;;20.00;39.10;;;;;;5096269;28;19912;-67
2022/01/23 09:08:35;;;;;;;;;;;20.00;39.10;;;;;;5096252;28;19918;-67
2022/01/23 09:11:07;;;;;;;;;;;20.00;39.10;;;;;;5096172;28;19908;-67
2022/01/23 09:16:06;;;;;;;;;;;20.00;39.10;;;;;;5096188;28;20094;-67
2022/01/23 09:18:32;;;;;;;;;;;20.00;39.10;;;;;;5077883;28;19957;-67
2022/01/23 09:20:57;;;;;;;;;;;20.00;39.10;;;;;;5077917;28;20259;-67
2022/01/23 09:23:23;;;;;;;;;;;20.00;39.10;;;;;;5095847;28;20440;-66
2022/01/23 09:25:49;;;;;;;;;;;20.00;39.00;;;;;;5095872;28;19912;-67
2022/01/23 09:28:15;;;;;;;;;;;20.00;39.10;;;;;;5095738;28;19966;-67
2022/01/23 09:30:43;;;;;;;;;;;20.00;39.10;;;;;;5095837;28;19912;-67
2022/01/23 09:33:08;;;;;;;;;;;20.00;39.10;;;;;;5077538;28;19999;-67
2022/01/23 09:35:34;;;;;;;;;;;20.00;39.10;;;;;;5095898;28;20485;-67
2022/01/23 09:37:59;;;;;;;;;;;20.00;39.10;;;;;;5095889;28;19916;-66
2022/01/23 09:40:25;;;;;;;;;;;20.00;39.00;;;;;;5095764;28;19908;-67
2022/01/23 09:42:54;;;;;;;;;;;20.00;39.10;;;;;;5095600;28;19962;-67
2022/01/23 09:45:20;;;;;;;;;;;20.00;39.10;;;;;;5077262;28;20383;-66
2022/01/23 09:47:46;;;;;;;;;;;20.00;39.00;;;;;;5095480;28;19908;-67
2022/01/23 09:50:13;;;;;;;;;;;20.00;39.00;;;;;;5095437;28;19912;-67
2022/01/23 09:52:40;;;;;;;;;;;20.00;39.00;;;;;;5077341;28;19912;-66
2022/01/23 09:55:09;;;;;;;;;;;20.00;39.10;;;;;;5094398;28;20268;-67
2022/01/23 09:57:36;;;;;;;;;;;20.00;39.00;;;;;;5095424;28;19915;-66
2022/01/23 10:00:04;;;;;;;;;;;20.00;39.00;;;;;;5077082;28;20372;-66
2022/01/23 10:02:29;;;;;;;;;;;20.10;39.00;;;;;;5094959;28;19960;-67
2022/01/23 10:04:55;;;;;;;;;;;20.00;39.00;;;;;;5095181;28;19908;-66
2022/01/23 10:07:21;;;;;;;;;;;20.10;39.00;;;;;;5095000;28;19908;-67
2022/01/23 10:09:53;;;;;;;;;;;20.10;39.00;;;;;;5095286;28;19908;-67
2022/01/23 10:12:20;;;;;;;;;;;20.10;39.00;;;;;;5095014;28;20288;-67
2022/01/23 10:14:46;;;;;;;;;;;20.10;39.00;;;;;;5094891;28;19962;-67
2022/01/23 10:17:11;;;;;;;;;;;20.10;39.00;;;;;;5076775;28;19912;-67
2022/01/23 10:19:37;;;;;;;;;;;20.10;39.00;;;;;;5094730;28;19952;-67
2022/01/23 10:22:05;;;;;;;;;;;20.00;39.00;;;;;;5094729;28;19920;-67
2022/01/23 10:24:30;;;;;;;;;;;20.10;39.00;;;;;;5094651;28;20375;-67
2022/01/23 10:26:58;;;;;;;;;;;20.10;39.10;;;;;;5094753;28;19912;-67
2022/01/23 10:29:29;;;;;;;;;;;20.10;39.00;;;;;;5094595;28;19908;-67
2022/01/23 10:32:02;;;;;;;;;;;20.10;39.00;;;;;;5094588;28;19908;-67
2022/01/23 10:34:44;;;;;;;;;;;20.10;39.10;;;;;;5094535;28;19908;-67
2022/01/23 10:37:11;;;;;;;;;;;20.10;39.10;;;;;;5094474;28;19908;-67
2022/01/23 10:39:40;;;;;;;;;;;20.10;39.00;;;;;;5094323;28;19953;-66
2022/01/23 10:42:48;;;;;;;;;;;20.10;39.00;;;;;;5075981;28;20352;-67
2022/01/23 10:50:48;;;;;;;;;;;20.10;39.00;;;;;;5094439;28;19908;-66
2022/01/23 10:53:13;;;;;;;;;;;20.10;39.00;;;;;;5076030;28;20042;-66
2022/01/23 10:55:39;;;;;;;;;;;20.10;39.00;;;;;;5075959;28;20477;-67
2022/01/23 10:58:06;;;;;;;;;;;20.20;39.00;;;;;;5094011;28;19951;-67
2022/01/23 11:00:33;;;;;;;;;;;20.10;39.00;;;;;;5094135;28;19908;-67
2022/01/23 11:03:00;;;;;;;;;;;20.10;39.00;;;;;;5094019;28;19923;-67
2022/01/23 11:05:36;;;;;;;;;;;20.10;39.00;;;;;;5094035;28;19961;-66
2022/01/23 11:08:01;;;;;;;;;;;20.10;39.00;;;;;;5093894;28;19908;-67
2022/01/23 11:10:27;;;;;;;;;;;20.10;39.00;;;;;;5093926;28;19994;-67
2022/01/23 11:18:05;;;;;;;;;;;20.10;39.00;;;;;;5093862;28;19962;-67
2022/01/23 11:20:41;;;;;;;;;;;20.10;39.00;;;;;;5093682;28;20264;-67
2022/01/23 11:23:14;;;;;;;;;;;20.10;39.00;;;;;;5093486;28;19986;-67
2022/01/23 11:25:41;;;;;;;;;;;20.20;39.00;;;;;;5093574;28;20398;-67
2022/01/23 11:28:06;;;;;;;;;;;20.10;39.00;;;;;;5093821;28;19999;-67
2022/01/23 11:30:34;;;;;;;;;;;20.20;39.00;;;;;;5093654;28;19955;-66
2022/01/23 11:33:00;;;;;;;;;;;20.10;39.00;;;;;;5093610;28;19912;-67
2022/01/23 11:35:27;;;;;;;;;;;20.10;39.10;;;;;;5093563;28;19930;-67
2022/01/23 11:37:54;;;;;;;;;;;20.10;39.00;;;;;;5093538;28;20024;-66
2022/01/23 11:40:33;;;;;;;;;;;20.10;39.00;;;;;;5093558;28;19944;-67
2022/01/23 11:50:43;;;;;;;;;;;20.20;39.00;;;;;;5093492;28;19965;-67
2022/01/23 11:53:53;;;;;;;;;;;20.20;39.00;;;;;;5093448;28;19934;-67
2022/01/23 11:56:24;;;;;;;;;;;20.20;39.00;;;;;;5075215;28;20318;-67
2022/01/23 11:59:09;;;;;;;;;;;20.20;39.00;;;;;;5074925;28;19920;-66
2022/01/23 12:01:34;;;;;;;;;;;20.20;39.00;;;;;;5093197;28;19988;-66
2022/01/23 12:04:06;;;;;;;;;;;20.20;39.00;;;;;;5093227;28;19908;-67
2022/01/23 12:06:32;;;;;;;;;;;20.20;39.00;;;;;;5093163;28;19908;-67
2022/01/23 12:09:10;;;;;;;;;;;20.20;39.00;;;;;;5075183;28;19908;-67
2022/01/23 12:11:48;;;;;;;;;;;20.20;39.00;;;;;;5093266;28;19908;-67
2022/01/23 12:16:59;;;;;;;;;;;20.20;39.00;;;;;;5093390;28;19912;-67
2022/01/23 12:19:29;;;;;;;;;;;20.20;39.00;;;;;;5095526;28;19909;-67
2022/01/23 12:21:55;;;;;;;;;;;20.20;39.00;;;;;;5096670;28;19920;-67
2022/01/23 12:24:22;;;;;;;;;;;20.20;39.10;;;;;;5078768;28;20287;-67
2022/01/23 12:26:48;;;;;;;;;;;20.20;39.00;;;;;;5097305;28;19908;-67
2022/01/23 12:29:18;;;;;;;;;;;20.20;39.00;;;;;;5078840;28;19912;-66
2022/01/23 12:31:44;;;;;;;;;;;20.20;39.00;;;;;;5096942;28;19931;-67
2022/01/23 12:34:11;;;;;;;;;;;20.20;39.00;;;;;;5096858;28;20344;-67
2022/01/23 12:36:38;;;;;;;;;;;20.20;39.00;;;;;;5096869;28;19915;-67
2022/01/23 12:39:06;;;;;;;;;;;20.20;39.00;;;;;;5078814;28;19919;-66
2022/01/23 12:41:35;;;;;;;;;;;20.20;39.00;;;;;;5078462;28;19908;-67
2022/01/23 12:44:28;;;;;;;;;;;20.20;39.00;;;;;;5096491;28;20406;-67
2022/01/23 12:46:54;;;;;;;;;;;20.20;38.90;;;;;;5092848;28;19912;-67
2022/01/23 12:49:28;;;;;;;;;;;20.20;39.00;;;;;;5096526;28;20002;-67
2022/01/23 12:52:12;;;;;;;;;;;20.20;39.00;;;;;;5078401;28;20012;-67
2022/01/23 12:54:46;;;;;;;;;;;20.20;39.00;;;;;;5096674;28;19931;-67
2022/01/23 12:57:14;;;;;;;;;;;20.20;39.00;;;;;;5096468;28;19908;-67
2022/01/23 12:59:40;;;;;;;;;;;20.20;39.00;;;;;;5078151;28;19920;-67
2022/01/23 13:02:09;;;;;;;;;;;20.20;39.00;;;;;;5096371;28;19966;-67
2022/01/23 13:04:38;;;;;;;;;;;20.20;39.00;;;;;;5096471;28;19955;-67
2022/01/23 13:07:07;;;;;;;;;;;20.20;39.00;;;;;;5096367;28;19918;-67
2022/01/23 13:12:15;;;;;;;;;;;20.20;39.00;;;;;;5096557;28;19912;-66
2022/01/23 13:29:53;;;;;;;;;;;20.20;39.00;;;;;;5095976;28;19908;-67
2022/01/23 13:31:56;;;;;;;;;;;20.20;39.00;;;;;;5095609;28;19908;-67
2022/01/23 13:34:26;;;;;;;;;;;20.20;39.00;;;;;;5077740;28;20317;-67
2022/01/23 13:36:59;;;;;;;;;;;20.20;39.00;;;;;;5077440;28;19995;-66
2022/01/23 13:39:28;;;;;;;;;;;20.20;39.00;;;;;;5095571;28;19908;-67
2022/01/23 13:42:00;;;;;;;;;;;20.20;39.00;;;;;;5095533;28;19916;-67
2022/01/23 13:51:12;;;;;;;;;;;20.20;39.00;;;;;;5095619;28;20015;-67
2022/01/23 13:53:07;;;;;;;;;;;20.20;39.00;;;;;;5095154;28;20022;-67
2022/01/23 13:58:35;;;;;;;;;;;20.20;39.00;;;;;;5095119;28;19923;-66
2022/01/23 14:01:16;;;;;;;;;;;20.20;39.00;;;;;;5095305;28;20029;-67
2022/01/23 14:03:41;;;;;;;;;;;20.20;39.00;;;;;;5095159;28;19916;-66
2022/01/23 14:06:07;;;;;;;;;;;20.20;39.00;;;;;;5095056;28;19909;-67
2022/01/23 14:08:32;;;;;;;;;;;20.20;39.00;;;;;;5076863;28;19918;-67
2022/01/23 14:10:58;;;;;;;;;;;20.20;39.00;;;;;;5095064;28;20364;-66
2022/01/23 14:13:24;;;;;;;;;;;20.20;39.00;;;;;;5094952;28;19999;-67
2022/01/23 14:15:53;;;;;;;;;;;20.20;39.00;;;;;;5095202;28;19946;-67
2022/01/23 14:18:27;;;;;;;;;;;20.20;39.00;;;;;;5094671;28;20431;-66
2022/01/23 14:21:00;;;;;;;;;;;20.20;39.00;;;;;;5094504;28;19953;-66
2022/01/23 14:23:26;;;;;;;;;;;20.20;39.00;;;;;;5076328;28;19916;-67
2022/01/23 14:25:59;;;;;;;;;;;20.20;39.00;;;;;;5094594;28;19908;-67
2022/01/23 14:28:35;;;;;;;;;;;20.20;39.00;;;;;;5094700;28;20252;-67
2022/01/23 14:31:09;;;;;;;;;;;20.20;39.00;;;;;;5094751;28;19965;-67
2022/01/23 14:33:35;;;;;;;;;;;20.20;39.00;;;;;;5076731;28;19908;-67
2022/01/23 14:36:20;;;;;;;;;;;20.20;39.00;;;;;;5076423;28;19915;-66
2022/01/23 14:38:53;;;;;;;;;;;20.20;39.00;;;;;;5076306;28;20008;-67
2022/01/23 14:41:18;;;;;;;;;;;20.20;39.00;;;;;;5093958;28;19908;-67
2022/01/23 14:43:44;;;;;;;;;;;20.20;38.90;;;;;;5094673;28;19916;-66
2022/01/23 14:46:11;;;;;;;;;;;20.20;39.00;;;;;;5094341;28;19954;-66
2022/01/23 14:48:44;;;;;;;;;;;20.20;39.00;;;;;;5094338;28;19908;-67
2022/01/23 14:51:11;;;;;;;;;;;20.20;39.00;;;;;;5094309;28;19908;-67
2022/01/23 14:53:37;;;;;;;;;;;20.20;39.00;;;;;;5076077;28;20003;-67
2022/01/23 14:56:04;;;;;;;;;;;20.20;39.00;;;;;;5094180;28;20006;-66
2022/01/23 14:58:31;;;;;;;;;;;20.20;39.00;;;;;;5075750;28;19916;-66
2022/01/23 15:00:57;;;;;;;;;;;20.20;39.00;;;;;;5094014;28;19908;-67
2022/01/23 15:03:23;;;;;;;;;;;20.20;38.90;;;;;;5093997;28;19916;-67
2022/01/23 15:05:48;;;;;;;;;;;20.20;39.00;;;;;;5075889;28;19908;-67
2022/01/23 15:08:14;;;;;;;;;;;20.20;39.00;;;;;;5093912;28;19912;-67
2022/01/23 15:10:42;;;;;;;;;;;20.20;39.00;;;;;;5093864;28;19912;-67
2022/01/23 15:13:08;;;;;;;;;;;20.20;39.00;;;;;;5093737;28;19952;-67
2022/01/23 15:15:33;;;;;;;;;;;20.20;39.00;;;;;;5093665;28;20389;-67
2022/01/23 15:17:59;;;;;;;;;;;20.20;38.90;;;;;;5093894;28;20041;-67
2022/01/23 15:20:24;;;;;;;;;;;20.20;38.90;;;;;;5093788;28;19908;-67
2022/01/23 15:22:50;;;;;;;;;;;20.20;38.90;;;;;;5093622;28;20375;-66
2022/01/23 15:25:18;;;;;;;;;;;20.20;38.90;;;;;;5075604;28;20398;-67
2022/01/23 15:27:44;;;;;;;;;;;20.20;38.90;;;;;;5075472;28;19912;-67
2022/01/23 15:30:10;;;;;;;;;;;20.20;38.90;;;;;;5093621;28;20248;-67
2022/01/23 15:32:36;;;;;;;;;;;20.20;38.90;;;;;;5093938;28;19914;-67
2022/01/23 15:35:03;;;;;;;;;;;20.20;38.90;;;;;;5093758;28;19934;-66
2022/01/23 15:37:28;;;;;;;;;;;20.20;38.90;;;;;;5075420;28;20322;-66
2022/01/23 15:39:54;;;;;;;;;;;20.20;38.90;;;;;;5093486;28;19908;-67
2022/01/23 15:42:19;;;;;;;;;;;20.20;38.90;;;;;;5093445;28;20363;-67
2022/01/23 15:44:44;;;;;;;;;;;20.20;38.90;;;;;;5093491;28;19908;-66
2022/01/23 15:47:10;;;;;;;;;;;20.30;38.90;;;;;;5093604;28;19931;-67
2022/01/23 15:49:36;;;;;;;;;;;20.20;38.90;;;;;;5093642;28;19908;-66
2022/01/23 15:52:02;;;;;;;;;;;20.20;38.90;;;;;;5075237;28;19951;-66
2022/01/23 15:54:29;;;;;;;;;;;20.20;38.90;;;;;;5096312;28;20342;-66
2022/01/23 15:56:55;;;;;;;;;;;20.20;38.90;;;;;;5079466;28;19908;-67
2022/01/23 15:59:21;;;;;;;;;;;20.20;38.90;;;;;;5097341;28;19942;-66
2022/01/23 16:01:49;;;;;;;;;;;20.20;38.90;;;;;;5097426;28;19914;-67
2022/01/23 16:04:14;;;;;;;;;;;20.20;38.90;;;;;;5097592;28;19916;-66
2022/01/23 16:06:40;;;;;;;;;;;20.20;38.90;;;;;;5097791;28;19916;-66
2022/01/23 16:09:06;;;;;;;;;;;20.20;38.90;;;;;;5097611;28;19912;-67
2022/01/23 16:11:31;;;;;;;;;;;20.20;38.90;;;;;;5097288;28;19908;-67
2022/01/23 16:13:56;;;;;;;;;;;20.20;38.90;;;;;;5062313;28;19931;-66
2022/01/23 16:16:22;;;;;;;;;;;20.20;38.90;;;;;;5079024;28;20016;-67
2022/01/23 16:18:47;;;;;;;;;;;20.20;38.90;;;;;;5097118;28;19908;-67
2022/01/23 16:21:13;;;;;;;;;;;20.20;38.90;;;;;;5096949;28;19912;-67
2022/01/23 16:23:38;;;;;;;;;;;20.20;38.90;;;;;;5096966;28;19920;-67
2022/01/23 16:26:04;;;;;;;;;;;20.20;38.90;;;;;;5078861;28;19912;-67
2022/01/23 16:28:29;;;;;;;;;;;20.20;38.90;;;;;;5096961;28;19912;-67
2022/01/23 16:30:56;;;;;;;;;;;20.20;38.80;;;;;;5078747;28;20274;-67
2022/01/23 16:33:26;;;;;;;;;;;20.20;38.80;;;;;;5097207;28;19918;-67
2022/01/23 16:35:52;;;;;;;;;;;20.20;38.80;;;;;;5097179;28;19909;-67
2022/01/23 16:38:18;;;;;;;;;;;20.20;38.90;;;;;;5079201;28;19908;-66
2022/01/23 16:40:45;;;;;;;;;;;20.20;38.90;;;;;;5097041;28;19934;-66
2022/01/23 16:43:10;;;;;;;;;;;20.20;38.80;;;;;;5096726;28;19916;-67
2022/01/23 16:45:36;;;;;;;;;;;20.20;38.90;;;;;;5096790;28;20003;-67
2022/01/23 16:48:02;;;;;;;;;;;20.20;38.80;;;;;;5096688;28;19940;-67
2022/01/23 16:50:28;;;;;;;;;;;20.20;38.80;;;;;;5096514;28;19908;-66
2022/01/23 16:52:53;;;;;;;;;;;20.20;38.80;;;;;;5096868;28;19914;-67
2022/01/23 16:55:19;;;;;;;;;;;20.20;38.80;;;;;;5096499;28;20025;-66
2022/01/23 16:57:45;;;;;;;;;;;20.20;38.80;;;;;;5096527;28;19915;-67
2022/01/23 17:00:11;;;;;;;;;;;20.20;38.80;;;;;;5096326;28;20361;-67
2022/01/23 17:02:37;;;;;;;;;;;20.20;38.80;;;;;;5096359;28;19916;-67
2022/01/23 17:05:03;;;;;;;;;;;20.20;38.80;;;;;;5096116;28;19912;-66
2022/01/23 17:07:28;;;;;;;;;;;20.20;38.90;;;;;;5078174;28;19912;-67
2022/01/23 17:09:54;;;;;;;;;;;20.20;38.80;;;;;;5096258;28;19908;-67
2022/01/23 17:12:19;;;;;;;;;;;20.20;38.80;;;;;;5096258;28;19940;-66
2022/01/23 17:14:45;;;;;;;;;;;20.20;38.80;;;;;;5096060;28;20355;-66
2022/01/23 17:17:10;;;;;;;;;;;20.20;38.80;;;;;;5096363;28;20367;-67
2022/01/23 17:19:36;;;;;;;;;;;20.20;38.80;;;;;;5095897;28;20271;-67
2022/01/23 17:22:01;;;;;;;;;;;20.20;38.80;;;;;;5096328;28;20377;-67
2022/01/23 17:24:28;;;;;;;;;;;20.20;38.80;;;;;;5095922;28;19914;-66
2022/01/23 17:26:53;;;;;;;;;;;20.20;38.80;;;;;;5096022;28;19912;-67
2022/01/23 17:29:19;;;;;;;;;;;20.20;38.80;;;;;;5095859;28;19915;-67
2022/01/23 17:31:47;;;;;;;;;;;20.20;38.70;;;;;;5095983;28;20317;-67
2022/01/23 17:34:12;;;;;;;;;;;20.20;38.70;;;;;;5095832;28;20398;-67